Didsbury, Canada
Current Conditions -  °F | °C
As of 10:00 AM on Thursday 23 Oct 2014 (Local Time) from CYQF Reporting Station
Scattered Clouds Scattered Clouds  
Wind Chill: 46°   Ceiling: Unl
Heat Index: 48°   Visibility: 15mi
Dew Point: 36°   Wind: 5mph
Humidity: 62%   Direction: 240°WSW
Pressure: 29.46"   Gusts: NA
Location:  51.67°N, 114.13°W
Report Text: CYQF 231600Z 24004KT 200V270 15SM SCT100 09/02 A2946 RMK AC4 PRESFR SLP994 DENSITY ALT 3400FT
Loading
Personal Weather Stations






























Interactive Weather Map New forecast layout! Learn more

10-Day Weather Forecast

Advertisements
Track Severe Weather on mobile